createdAt,value
2022-08-05T00:01:35.977Z,73.70
2022-08-05T00:04:17.602Z,74.10
2022-08-05T00:06:47.092Z,74.00
2022-08-05T00:09:19.441Z,74.30
2022-08-05T00:11:55.345Z,74.70
2022-08-05T00:14:29.336Z,75.50
2022-08-05T00:17:01.653Z,76.90
2022-08-05T00:19:33.573Z,78.60
2022-08-05T00:22:11.471Z,79.70
2022-08-05T00:24:42.429Z,78.90
2022-08-05T00:27:14.147Z,79.80
2022-08-05T00:29:45.361Z,78.20
2022-08-05T00:32:15.288Z,78.90
2022-08-05T00:35:05.065Z,81.00
2022-08-05T00:37:35.507Z,82.90
2022-08-05T00:40:26.931Z,82.50
2022-08-05T00:43:00.915Z,85.30
2022-08-05T00:45:38.267Z,86.10
2022-08-05T00:48:09.266Z,91.90
2022-08-05T00:50:39.416Z,88.80
2022-08-05T00:54:01.296Z,89.30
2022-08-05T00:55:57.429Z,90.00
2022-08-05T00:58:27.402Z,90.60
2022-08-05T01:00:56.570Z,90.00
2022-08-05T01:03:30.887Z,88.60
2022-08-05T01:06:01.285Z,89.30
2022-08-05T01:08:42.875Z,90.40
2022-08-05T01:11:36.899Z,90.60
2022-08-05T01:14:28.379Z,90.60
2022-08-05T01:17:15.205Z,90.80
2022-08-05T01:20:27.005Z,90.00
2022-08-05T01:23:34.732Z,91.00
2022-08-05T01:26:41.324Z,91.50
2022-08-05T01:29:37.139Z,91.80
2022-08-05T01:32:12.530Z,91.90
2022-08-05T01:34:55.574Z,92.60
2022-08-05T01:37:50.870Z,93.60
2022-08-05T01:40:29.171Z,93.60
2022-08-05T01:42:59.630Z,92.40
2022-08-05T01:45:35.011Z,92.40
2022-08-05T01:48:11.401Z,92.70
2022-08-05T01:50:41.573Z,92.90
2022-08-05T01:53:57.757Z,92.90
2022-08-05T01:56:13.348Z,93.00
2022-08-05T01:59:06.332Z,93.10
2022-08-05T02:01:39.868Z,92.90
2022-08-05T02:22:17.460Z,99.90
2022-08-05T02:46:58.924Z,93.50
2022-08-05T02:49:37.369Z,94.30
2022-08-05T02:52:11.355Z,94.60
2022-08-05T02:54:41.057Z,94.70
2022-08-05T02:58:11.118Z,94.70
2022-08-05T03:00:05.079Z,93.80
2022-08-05T03:02:40.001Z,92.90
2022-08-05T03:05:11.961Z,93.20
2022-08-05T03:08:04.384Z,99.90
2022-08-05T03:10:31.160Z,93.70
2022-08-05T03:15:28.436Z,94.00
2022-08-05T03:20:25.661Z,94.20
2022-08-05T03:22:57.490Z,94.50
2022-08-05T03:26:30.112Z,94.50
2022-08-05T03:28:32.614Z,94.50
2022-08-05T03:31:01.574Z,94.60
2022-08-05T03:33:42.243Z,94.80
2022-08-05T03:36:30.608Z,94.90
2022-08-05T03:38:58.826Z,95.00
2022-08-05T03:41:26.357Z,95.10
2022-08-05T03:44:11.315Z,95.40
2022-08-05T03:46:39.509Z,95.20
2022-08-05T03:49:07.027Z,94.80
2022-08-05T03:52:38.874Z,94.90
2022-08-05T03:56:04.781Z,95.30
2022-08-05T04:00:32.469Z,94.30
2022-08-05T04:03:03.119Z,94.60
2022-08-05T04:05:35.941Z,94.90
2022-08-05T04:08:30.271Z,94.90
2022-08-05T04:10:56.733Z,94.90
2022-08-05T04:13:27.869Z,95.00
2022-08-05T04:16:14.545Z,95.00
2022-08-05T04:18:44.291Z,94.80
2022-08-05T04:22:05.136Z,95.10
2022-08-05T04:24:08.934Z,95.10
2022-08-05T04:26:50.537Z,94.60
2022-08-05T04:29:18.786Z,94.80
2022-08-05T04:31:48.512Z,95.00
2022-08-05T04:34:32.575Z,95.70
2022-08-05T04:37:03.080Z,95.70
2022-08-05T04:39:32.206Z,95.70
2022-08-05T04:42:00.441Z,95.80
2022-08-05T04:44:32.496Z,95.80
2022-08-05T04:47:09.335Z,95.90
2022-08-05T04:50:02.635Z,95.50
2022-08-05T04:52:29.269Z,94.90
2022-08-05T04:55:13.832Z,94.50
2022-08-05T04:57:47.937Z,94.70
2022-08-05T05:00:23.605Z,94.20
2022-08-05T05:02:52.188Z,94.20
2022-08-05T05:05:28.153Z,94.30
2022-08-05T05:08:14.410Z,94.10
2022-08-05T05:10:56.650Z,94.30
2022-08-05T05:13:24.184Z,94.50
2022-08-05T05:18:31.214Z,94.30
2022-08-05T05:21:03.708Z,94.50
2022-08-05T05:23:39.247Z,94.60
2022-08-05T05:26:19.271Z,94.60
2022-08-05T05:28:46.933Z,94.50
2022-08-05T05:31:14.522Z,94.40
2022-08-05T05:33:59.193Z,94.30
2022-08-05T05:36:29.891Z,94.00
2022-08-05T05:38:58.210Z,94.20
2022-08-05T05:41:40.003Z,94.00
2022-08-05T05:44:35.491Z,94.00
2022-08-05T05:46:56.219Z,94.00
2022-08-05T05:49:26.516Z,94.00
2022-08-05T05:51:57.110Z,94.10
2022-08-05T05:54:50.341Z,94.20
2022-08-05T05:57:13.794Z,94.30
2022-08-05T05:59:48.786Z,94.30
2022-08-05T06:02:36.856Z,94.00
2022-08-05T06:05:14.667Z,93.30
2022-08-05T06:07:57.812Z,92.70
2022-08-05T06:10:36.649Z,92.30
2022-08-05T06:13:05.548Z,92.50
2022-08-05T06:16:30.749Z,92.70
2022-08-05T06:18:20.861Z,93.00
2022-08-05T06:20:59.606Z,93.20
2022-08-05T06:23:27.064Z,93.00
2022-08-05T06:26:13.360Z,93.00
2022-08-05T06:28:47.417Z,92.80
2022-08-05T06:31:17.641Z,93.10
2022-08-05T06:36:53.439Z,92.70
2022-08-05T06:39:21.739Z,92.90
2022-08-05T06:41:50.751Z,92.90
2022-08-05T06:44:19.694Z,92.80
2022-08-05T06:46:50.807Z,93.10
2022-08-05T06:49:21.300Z,93.00
2022-08-05T06:51:49.181Z,92.90
2022-08-05T06:54:18.161Z,92.80
2022-08-05T06:56:54.840Z,92.80
2022-08-05T06:59:38.847Z,92.80
2022-08-05T07:02:12.883Z,92.70
2022-08-05T07:04:42.587Z,92.40
2022-08-05T07:07:15.083Z,92.50
2022-08-05T07:09:43.261Z,92.60
2022-08-05T07:12:30.807Z,92.70
2022-08-05T07:15:17.297Z,92.20
2022-08-05T07:18:09.637Z,92.20
2022-08-05T07:23:06.856Z,92.60
2022-08-05T07:25:54.744Z,92.60
2022-08-05T07:28:22.052Z,92.20
2022-08-05T07:30:50.399Z,92.20
2022-08-05T07:46:49.533Z,88.00
2022-08-05T07:49:18.979Z,98.20
2022-08-05T07:51:54.317Z,87.90
2022-08-05T07:54:31.267Z,88.10
2022-08-05T07:57:23.694Z,88.40
2022-08-05T07:59:50.475Z,98.30
2022-08-05T12:06:06.252Z,75.80
2022-08-05T12:08:53.610Z,76.50
2022-08-05T12:11:40.612Z,78.90
2022-08-05T12:14:10.209Z,79.90
2022-08-05T12:20:25.692Z,80.60
2022-08-05T12:22:01.855Z,81.90
2022-08-05T12:26:58.604Z,82.50
2022-08-05T12:32:09.598Z,82.50
2022-08-05T13:51:11.903Z,75.90
2022-08-05T13:53:47.811Z,76.80
2022-08-05T13:56:18.099Z,77.10
2022-08-05T14:04:28.668Z,77.10
2022-08-05T14:09:46.482Z,77.40
2022-08-05T15:22:04.953Z,78.30
2022-08-05T15:24:32.635Z,78.40
2022-08-05T15:27:00.336Z,78.50
2022-08-05T15:34:34.038Z,75.50
2022-08-05T15:37:06.914Z,75.80
2022-08-05T15:41:00.836Z,74.70
2022-08-05T15:45:38.587Z,75.90
2022-08-05T15:48:06.881Z,76.20
2022-08-05T15:50:34.645Z,75.80
2022-08-05T15:53:05.684Z,76.70
2022-08-05T15:56:04.275Z,76.80
2022-08-05T15:58:23.223Z,75.70
2022-08-05T16:01:11.779Z,76.00
2022-08-05T16:03:41.137Z,76.60
2022-08-05T16:06:11.153Z,75.50
2022-08-05T16:08:39.987Z,75.80
2022-08-05T16:11:10.528Z,75.40
2022-08-05T16:13:38.225Z,75.20
2022-08-05T16:16:06.705Z,75.60
2022-08-05T16:18:34.465Z,75.30
2022-08-05T16:21:04.640Z,74.50
2022-08-05T16:23:54.089Z,73.90
2022-08-05T16:26:26.483Z,73.20
2022-08-05T16:28:56.327Z,72.70
2022-08-05T16:31:24.242Z,71.80
2022-08-05T16:33:53.855Z,71.90
2022-08-05T16:36:23.911Z,71.20
2022-08-05T16:38:54.682Z,71.70
2022-08-05T16:42:11.975Z,71.40
2022-08-05T16:44:16.440Z,70.70
2022-08-05T16:46:55.744Z,71.10
2022-08-05T16:49:27.197Z,70.90
2022-08-05T16:51:57.018Z,71.00
2022-08-05T16:54:30.239Z,69.40
2022-08-05T16:56:59.838Z,69.40
2022-08-05T16:59:27.853Z,69.40
2022-08-05T17:01:59.495Z,68.60
2022-08-05T17:04:28.907Z,68.80
2022-08-05T17:07:01.498Z,69.10
2022-08-05T17:09:39.013Z,68.90
2022-08-05T17:12:22.787Z,68.50
2022-08-05T17:15:07.859Z,67.50
2022-08-05T17:17:42.182Z,67.60
2022-08-05T17:20:14.597Z,69.40
2022-08-05T17:22:42.532Z,69.00
2022-08-05T17:25:33.669Z,69.50
2022-08-05T17:28:00.273Z,69.20
2022-08-05T17:30:29.164Z,69.30
2022-08-05T17:32:56.872Z,69.60
2022-08-05T17:35:32.414Z,70.20
2022-08-05T17:38:17.541Z,70.40
2022-08-05T17:43:17.203Z,96.40
2022-08-05T17:45:45.658Z,71.50
2022-08-05T17:48:13.208Z,70.40
2022-08-05T17:50:43.366Z,71.10
2022-08-05T17:53:10.966Z,72.00
2022-08-05T17:55:40.245Z,72.70
2022-08-05T17:58:14.424Z,73.10
2022-08-05T18:00:47.905Z,73.70
2022-08-05T18:06:11.464Z,74.40
2022-08-05T18:08:46.158Z,74.60
2022-08-05T18:11:24.165Z,75.00
2022-08-05T18:13:57.071Z,74.90
2022-08-05T18:16:27.452Z,75.30
2022-08-05T18:18:55.291Z,75.20
2022-08-05T18:21:25.979Z,75.20
2022-08-05T18:23:54.507Z,75.30
2022-08-05T18:26:27.746Z,76.10
2022-08-05T18:28:57.625Z,76.50
2022-08-05T18:31:25.937Z,76.80
2022-08-05T18:34:02.894Z,77.30
2022-08-05T18:36:30.874Z,77.50
2022-08-05T18:39:02.301Z,76.90
2022-08-05T18:41:56.463Z,76.80
2022-08-05T18:44:25.855Z,76.90
2022-08-05T18:47:05.632Z,77.10
2022-08-05T18:49:58.022Z,77.20
2022-08-05T21:29:26.498Z,72.00
2022-08-05T21:31:59.284Z,72.80
2022-08-05T21:34:26.739Z,72.90
2022-08-05T21:36:55.924Z,73.00
2022-08-05T21:39:26.569Z,73.10
2022-08-05T21:42:01.181Z,73.60
2022-08-05T21:44:33.063Z,73.80
2022-08-05T21:47:01.568Z,73.70
2022-08-05T21:49:58.499Z,74.10
2022-08-05T21:52:27.749Z,74.20
2022-08-05T21:55:06.516Z,74.40
2022-08-05T21:57:36.004Z,74.60
2022-08-05T22:00:11.278Z,75.60
2022-08-05T22:02:42.854Z,75.50
2022-08-05T22:05:13.097Z,75.90
2022-08-05T22:07:58.001Z,76.10
2022-08-05T22:10:27.817Z,77.00
2022-08-05T22:13:08.786Z,78.30
2022-08-05T22:16:00.780Z,78.70
2022-08-05T22:18:32.765Z,79.40
2022-08-05T22:26:50.580Z,79.20
2022-08-05T22:29:26.751Z,80.10
2022-08-05T22:31:59.472Z,80.50
2022-08-05T22:34:31.550Z,80.60
2022-08-05T22:36:59.769Z,80.60
2022-08-05T22:39:33.203Z,81.10
2022-08-05T22:42:11.074Z,81.50
2022-08-05T22:44:48.408Z,82.00
2022-08-05T22:50:23.156Z,82.80
2022-08-05T22:52:52.591Z,83.50
2022-08-05T22:57:51.393Z,81.80
2022-08-05T23:00:22.529Z,82.50
2022-08-05T23:02:53.696Z,82.60
2022-08-05T23:05:22.943Z,82.70
2022-08-05T23:07:51.731Z,83.20
2022-08-05T23:10:23.880Z,83.30
2022-08-05T23:12:54.466Z,83.90
2022-08-05T23:15:29.455Z,83.90
2022-08-05T23:20:37.430Z,83.30
2022-08-05T23:25:52.618Z,83.10
2022-08-05T23:28:29.399Z,83.40
2022-08-05T23:31:16.135Z,83.30
2022-08-05T23:34:04.478Z,83.60
2022-08-05T23:36:38.389Z,83.40
2022-08-05T23:39:08.329Z,83.40
2022-08-05T23:41:37.435Z,83.70
2022-08-05T23:44:09.049Z,84.20
2022-08-05T23:46:39.381Z,84.90
2022-08-05T23:49:16.018Z,85.50
2022-08-05T23:54:36.491Z,85.80
2022-08-05T23:57:07.728Z,86.50
